createdAt,value
2017-05-05T00:00:26.439Z,0
2017-05-05T00:01:07.331Z,0
2017-05-05T00:01:48.216Z,0
2017-05-05T00:02:29.096Z,0
2017-05-05T00:03:09.972Z,0
2017-05-05T00:03:50.896Z,0
2017-05-05T00:04:31.773Z,0
2017-05-05T00:05:12.645Z,0
2017-05-05T00:05:53.510Z,0
2017-05-05T00:06:34.431Z,0
2017-05-05T00:07:15.293Z,0
2017-05-05T00:07:56.181Z,0
2017-05-05T00:08:37.054Z,0
2017-05-05T00:09:17.935Z,0
2017-05-05T00:09:58.828Z,0
2017-05-05T00:10:39.712Z,0
2017-05-05T00:11:20.581Z,0
2017-05-05T00:12:01.436Z,0
2017-05-05T00:12:42.299Z,0
2017-05-05T00:13:23.196Z,0
2017-05-05T00:14:04.081Z,0
2017-05-05T00:14:44.970Z,0
2017-05-05T00:15:25.946Z,0
2017-05-05T00:16:06.832Z,0
2017-05-05T00:16:47.743Z,0
2017-05-05T00:17:28.607Z,0
2017-05-05T00:18:09.493Z,0
2017-05-05T00:18:50.368Z,0
2017-05-05T00:19:31.256Z,0
2017-05-05T00:20:12.132Z,0
2017-05-05T00:20:52.994Z,0
2017-05-05T00:21:33.874Z,0
2017-05-05T00:22:14.755Z,0
2017-05-05T00:24:29.059Z,0
2017-05-05T00:25:09.943Z,0
2017-05-05T00:25:50.831Z,0
2017-05-05T00:26:31.707Z,0
2017-05-05T00:27:12.590Z,0
2017-05-05T00:27:53.477Z,0
2017-05-05T00:28:34.346Z,0
2017-05-05T00:29:15.252Z,0
2017-05-05T00:29:56.122Z,0
2017-05-05T00:30:36.975Z,0
2017-05-05T00:31:17.845Z,0
2017-05-05T00:31:58.718Z,0
2017-05-05T00:32:39.611Z,0
2017-05-05T00:33:20.482Z,0
2017-05-05T00:34:01.357Z,0
2017-05-05T00:34:42.257Z,0
2017-05-05T00:35:23.162Z,0
2017-05-05T00:36:04.038Z,0
2017-05-05T00:36:44.905Z,0
2017-05-05T00:37:25.783Z,0
2017-05-05T00:38:06.717Z,0
2017-05-05T00:38:47.584Z,0
2017-05-05T00:39:28.444Z,0
2017-05-05T00:40:09.297Z,0
2017-05-05T00:40:50.163Z,0
2017-05-05T00:41:31.020Z,0
2017-05-05T00:42:11.903Z,0
2017-05-05T00:42:52.797Z,0
2017-05-05T00:43:33.668Z,0
2017-05-05T00:44:14.551Z,0
2017-05-05T00:44:55.406Z,0
2017-05-05T00:45:36.282Z,0
2017-05-05T00:46:17.169Z,0
2017-05-05T00:46:58.053Z,0
2017-05-05T00:47:38.934Z,0
2017-05-05T00:48:19.809Z,0
2017-05-05T00:49:00.700Z,0
2017-05-05T00:49:41.578Z,0
2017-05-05T00:50:22.452Z,0
2017-05-05T00:51:03.326Z,0
2017-05-05T00:51:44.207Z,0
2017-05-05T00:52:25.082Z,0
2017-05-05T00:53:05.983Z,0
2017-05-05T00:53:46.838Z,0
2017-05-05T00:54:27.708Z,0
2017-05-05T00:55:08.573Z,0
2017-05-05T00:55:49.441Z,0
2017-05-05T00:56:30.351Z,0
2017-05-05T00:57:11.208Z,0
2017-05-05T00:57:52.111Z,0
2017-05-05T00:58:32.988Z,0
2017-05-05T00:59:13.879Z,0
2017-05-05T00:59:54.752Z,0
2017-05-05T01:00:35.631Z,0
2017-05-05T01:01:16.497Z,0
2017-05-05T01:01:57.370Z,0
2017-05-05T01:02:38.271Z,0
2017-05-05T01:03:19.144Z,0
2017-05-05T01:04:00.020Z,0
2017-05-05T01:04:40.909Z,0
2017-05-05T01:05:21.785Z,0
2017-05-05T01:06:02.662Z,0
2017-05-05T01:06:43.544Z,0
2017-05-05T01:07:24.415Z,0
2017-05-05T01:08:05.289Z,0
2017-05-05T01:08:46.155Z,0
2017-05-05T01:09:27.043Z,0
2017-05-05T01:10:07.883Z,0
2017-05-05T01:10:48.752Z,0
2017-05-05T01:11:29.627Z,0
2017-05-05T01:12:10.528Z,0
2017-05-05T01:12:51.392Z,0
2017-05-05T01:13:32.263Z,0
2017-05-05T01:14:13.124Z,0
2017-05-05T01:14:54.020Z,0
2017-05-05T01:15:34.893Z,0
2017-05-05T01:16:15.772Z,0
2017-05-05T01:16:56.637Z,0
2017-05-05T01:17:37.497Z,0
2017-05-05T01:18:18.359Z,0
2017-05-05T01:18:59.220Z,0
2017-05-05T01:19:40.096Z,0
2017-05-05T01:20:20.965Z,0
2017-05-05T01:21:01.865Z,0
2017-05-05T01:21:42.751Z,0
2017-05-05T01:22:23.626Z,0
2017-05-05T01:23:04.513Z,0
2017-05-05T01:23:45.392Z,0
2017-05-05T01:24:26.272Z,0
2017-05-05T01:25:07.136Z,0
2017-05-05T01:25:47.998Z,0
2017-05-05T01:26:28.870Z,0
2017-05-05T01:27:09.732Z,0
2017-05-05T01:27:50.609Z,0
2017-05-05T01:28:31.466Z,0
2017-05-05T01:29:12.354Z,0
2017-05-05T01:29:53.242Z,0
2017-05-05T01:30:34.123Z,0
2017-05-05T01:31:15.009Z,0
2017-05-05T01:31:55.911Z,0
2017-05-05T01:32:36.773Z,0
2017-05-05T01:33:17.651Z,0
2017-05-05T01:33:58.547Z,0
2017-05-05T01:34:39.429Z,0
2017-05-05T01:35:20.333Z,0
2017-05-05T01:36:01.222Z,0
2017-05-05T01:36:42.116Z,0
2017-05-05T01:37:22.977Z,0
2017-05-05T01:38:03.853Z,0
2017-05-05T01:38:44.722Z,0
2017-05-05T01:39:25.611Z,0
2017-05-05T01:40:06.500Z,0
2017-05-05T01:40:47.378Z,0
2017-05-05T01:41:28.262Z,0
2017-05-05T01:42:09.143Z,0
2017-05-05T01:42:50.022Z,0
2017-05-05T01:43:30.909Z,0
2017-05-05T01:44:11.789Z,0
2017-05-05T01:44:52.651Z,0
2017-05-05T01:45:33.542Z,0
2017-05-05T01:46:14.437Z,0
2017-05-05T01:46:55.309Z,0
2017-05-05T01:47:36.179Z,0
2017-05-05T01:48:17.067Z,0
2017-05-05T01:48:57.951Z,0
2017-05-05T01:49:38.841Z,0
2017-05-05T01:50:19.719Z,0
2017-05-05T01:51:00.626Z,0
2017-05-05T01:51:41.501Z,0
2017-05-05T01:52:22.365Z,0
2017-05-05T01:53:03.237Z,0
2017-05-05T01:53:44.111Z,0
2017-05-05T01:54:25.022Z,0
2017-05-05T01:55:05.885Z,0
2017-05-05T01:55:46.792Z,0
2017-05-05T01:56:27.687Z,0
2017-05-05T01:57:08.564Z,0
2017-05-05T01:57:49.443Z,0
2017-05-05T01:58:30.323Z,0
2017-05-05T01:59:11.199Z,0
2017-05-05T01:59:52.099Z,0
2017-05-05T02:00:32.968Z,0
2017-05-05T02:01:13.846Z,0
2017-05-05T02:01:54.735Z,0
2017-05-05T02:02:35.623Z,0
2017-05-05T02:03:16.509Z,0
2017-05-05T02:03:57.383Z,0
2017-05-05T02:04:38.257Z,0
2017-05-05T02:05:19.149Z,0
2017-05-05T02:06:00.031Z,0
2017-05-05T02:06:40.913Z,0
2017-05-05T02:07:21.799Z,0
2017-05-05T02:08:02.676Z,0
2017-05-05T02:08:43.565Z,0
2017-05-05T02:09:24.451Z,0
2017-05-05T02:10:05.338Z,0
2017-05-05T02:10:46.226Z,0
2017-05-05T02:11:27.106Z,0
2017-05-05T02:12:08.000Z,0
2017-05-05T02:12:48.885Z,0
2017-05-05T02:13:29.764Z,0
2017-05-05T02:14:10.653Z,0
2017-05-05T02:14:51.520Z,0
2017-05-05T02:15:32.416Z,0
2017-05-05T02:16:13.294Z,0
2017-05-05T02:16:54.178Z,0
2017-05-05T02:17:35.050Z,0
2017-05-05T02:18:15.928Z,0
2017-05-05T02:18:56.814Z,0
2017-05-05T02:19:37.707Z,0
2017-05-05T02:20:18.582Z,0
2017-05-05T02:20:59.473Z,0
2017-05-05T02:21:40.356Z,0
2017-05-05T02:22:21.269Z,0
2017-05-05T02:23:02.160Z,0
2017-05-05T02:23:43.046Z,0
2017-05-05T02:24:23.918Z,0
2017-05-05T02:25:04.802Z,0
2017-05-05T02:25:45.699Z,0
2017-05-05T02:26:26.581Z,0
2017-05-05T02:27:07.459Z,0
2017-05-05T02:27:48.342Z,0
2017-05-05T02:28:29.227Z,0
2017-05-05T02:29:10.100Z,0
2017-05-05T02:29:50.973Z,0
2017-05-05T02:30:31.856Z,0
2017-05-05T02:31:12.746Z,0
2017-05-05T02:31:53.619Z,0
2017-05-05T02:32:34.489Z,0
2017-05-05T02:33:15.361Z,0
2017-05-05T02:33:56.226Z,0
2017-05-05T02:34:37.106Z,0
2017-05-05T02:35:17.990Z,0
2017-05-05T02:35:58.881Z,0
2017-05-05T02:36:39.760Z,0
2017-05-05T02:37:20.642Z,0
2017-05-05T02:38:01.523Z,0
2017-05-05T02:38:42.402Z,0
2017-05-05T02:39:23.286Z,0
2017-05-05T02:40:04.147Z,0
2017-05-05T02:40:45.027Z,0
2017-05-05T02:41:25.916Z,0
2017-05-05T02:42:06.798Z,0
2017-05-05T02:42:47.680Z,0
2017-05-05T02:43:28.543Z,0
2017-05-05T02:44:09.403Z,0
2017-05-05T02:44:50.288Z,0
2017-05-05T02:45:31.179Z,0
2017-05-05T02:46:14.913Z,0
2017-05-05T02:46:55.798Z,0
2017-05-05T02:47:36.669Z,0
2017-05-05T02:48:17.562Z,0
2017-05-05T02:48:58.452Z,0
2017-05-05T02:49:39.387Z,0
2017-05-05T02:50:20.272Z,0
2017-05-05T02:51:01.161Z,0
2017-05-05T02:51:42.039Z,0
2017-05-05T02:52:22.920Z,0
2017-05-05T02:53:03.795Z,0
2017-05-05T02:53:44.669Z,0
2017-05-05T02:54:25.541Z,0
2017-05-05T02:55:06.417Z,0
2017-05-05T02:55:47.307Z,0
2017-05-05T02:56:28.194Z,0
2017-05-05T02:57:09.065Z,0
2017-05-05T02:57:49.935Z,0
2017-05-05T02:58:30.809Z,0
2017-05-05T02:59:11.693Z,0
2017-05-05T02:59:52.581Z,0
2017-05-05T03:00:33.462Z,0
2017-05-05T03:01:14.354Z,0
2017-05-05T03:01:55.261Z,0
2017-05-05T03:02:36.165Z,0
2017-05-05T03:03:17.062Z,0
2017-05-05T03:03:57.934Z,0
2017-05-05T03:04:38.824Z,0
2017-05-05T03:05:19.705Z,0
2017-05-05T03:06:00.588Z,0
2017-05-05T03:06:41.470Z,0
2017-05-05T03:07:33.144Z,0
2017-05-05T03:09:26.745Z,0
2017-05-05T03:10:07.617Z,0
2017-05-05T03:10:48.502Z,0
2017-05-05T03:11:33.468Z,0
2017-05-05T03:12:14.366Z,0
2017-05-05T03:12:55.246Z,0
2017-05-05T03:15:14.497Z,0
2017-05-05T03:15:55.370Z,0
2017-05-05T03:16:36.232Z,0
2017-05-05T03:17:17.106Z,0
2017-05-05T03:17:57.980Z,0
2017-05-05T03:18:38.857Z,0
2017-05-05T03:19:19.745Z,0
2017-05-05T03:20:00.620Z,0
2017-05-05T03:20:41.508Z,0
2017-05-05T03:21:22.377Z,0
2017-05-05T03:22:03.271Z,0
2017-05-05T03:22:44.140Z,0
2017-05-05T03:23:25.012Z,0
2017-05-05T03:24:05.889Z,0
2017-05-05T03:24:46.748Z,0
2017-05-05T03:25:27.632Z,0
2017-05-05T03:26:08.511Z,0
2017-05-05T03:26:49.404Z,0
2017-05-05T03:27:30.262Z,0
2017-05-05T03:28:11.132Z,0
2017-05-05T03:28:51.997Z,0
2017-05-05T03:29:32.914Z,0
2017-05-05T03:30:13.779Z,0
2017-05-05T03:30:54.640Z,0
2017-05-05T03:31:35.514Z,0
2017-05-05T03:32:16.382Z,0
2017-05-05T03:32:57.262Z,0
2017-05-05T03:33:38.153Z,0
2017-05-05T03:34:19.017Z,0
2017-05-05T03:34:59.902Z,0
2017-05-05T03:35:40.766Z,0
2017-05-05T03:36:21.646Z,0
2017-05-05T03:37:02.522Z,0
2017-05-05T03:37:43.413Z,0
2017-05-05T03:38:24.271Z,0
2017-05-05T03:39:05.141Z,0
2017-05-05T03:39:46.021Z,0
2017-05-05T03:40:26.882Z,0
2017-05-05T03:41:07.770Z,0
2017-05-05T03:41:48.658Z,0
2017-05-05T03:42:29.517Z,0
2017-05-05T03:43:10.391Z,0
2017-05-05T03:43:51.267Z,0
2017-05-05T03:44:32.154Z,0
2017-05-05T03:45:13.022Z,0
2017-05-05T03:45:53.925Z,0
2017-05-05T03:46:34.793Z,0
2017-05-05T03:47:15.645Z,0
2017-05-05T03:47:56.544Z,0
2017-05-05T03:48:37.416Z,0
2017-05-05T03:49:18.292Z,0
2017-05-05T03:49:59.170Z,0
2017-05-05T03:50:40.046Z,0
2017-05-05T03:51:20.916Z,0
2017-05-05T03:52:01.781Z,5
2017-05-05T03:52:42.652Z,5
2017-05-05T03:53:23.526Z,5
2017-05-05T03:54:04.413Z,5
2017-05-05T03:54:45.278Z,5
2017-05-05T03:55:26.133Z,5
2017-05-05T03:56:07.014Z,5
2017-05-05T03:56:47.890Z,5
2017-05-05T03:57:28.746Z,5
2017-05-05T03:58:09.626Z,5
2017-05-05T03:58:50.507Z,10
2017-05-05T03:59:31.386Z,10
2017-05-05T04:00:12.271Z,10
2017-05-05T04:00:53.151Z,10
2017-05-05T04:01:34.062Z,5
2017-05-05T04:02:14.920Z,5
2017-05-05T04:02:55.808Z,5
2017-05-05T04:03:36.694Z,5
2017-05-05T04:04:17.589Z,10
2017-05-05T04:04:58.460Z,10
2017-05-05T04:05:39.342Z,10
2017-05-05T04:06:20.228Z,10
2017-05-05T04:07:01.112Z,10
2017-05-05T04:07:41.991Z,10
2017-05-05T04:08:22.871Z,5
2017-05-05T04:09:03.757Z,5
2017-05-05T04:09:44.648Z,5
2017-05-05T04:10:25.545Z,5
2017-05-05T04:11:06.400Z,5
2017-05-05T04:11:47.300Z,5
2017-05-05T04:12:28.175Z,5
2017-05-05T04:13:09.069Z,5
2017-05-05T04:13:49.937Z,5
2017-05-05T04:14:30.813Z,5
2017-05-05T04:15:11.684Z,10
2017-05-05T04:15:52.570Z,10
2017-05-05T04:16:33.478Z,10
2017-05-05T04:17:14.307Z,10
2017-05-05T04:17:55.188Z,10
2017-05-05T04:18:36.056Z,10
2017-05-05T04:19:16.938Z,10
2017-05-05T04:19:57.828Z,10
2017-05-05T04:20:38.710Z,10
2017-05-05T04:21:19.592Z,10
2017-05-05T04:22:00.483Z,10
2017-05-05T04:22:41.360Z,10
2017-05-05T04:23:22.235Z,10
2017-05-05T04:24:03.115Z,10
2017-05-05T04:24:44.001Z,10
2017-05-05T04:25:24.892Z,10
2017-05-05T04:26:05.768Z,10
2017-05-05T04:26:46.655Z,10
2017-05-05T04:27:27.552Z,10
2017-05-05T04:28:08.415Z,15
2017-05-05T04:28:49.303Z,15
2017-05-05T04:29:30.199Z,15
2017-05-05T04:30:11.086Z,15
2017-05-05T04:30:51.972Z,15
2017-05-05T04:31:32.853Z,15
2017-05-05T04:32:13.743Z,15
2017-05-05T04:32:54.619Z,15
2017-05-05T04:33:35.484Z,15
2017-05-05T04:34:16.370Z,15
2017-05-05T04:34:57.251Z,15
2017-05-05T04:35:38.557Z,10
2017-05-05T04:36:19.447Z,10
2017-05-05T04:37:00.332Z,10
2017-05-05T04:37:41.215Z,10
2017-05-05T04:38:22.108Z,10
2017-05-05T04:39:02.988Z,10
2017-05-05T04:39:43.868Z,15
2017-05-05T04:40:24.755Z,15
2017-05-05T04:41:05.633Z,15
2017-05-05T04:41:46.515Z,15
2017-05-05T04:42:27.381Z,15
2017-05-05T04:43:08.262Z,20
2017-05-05T04:43:49.149Z,20
2017-05-05T04:44:30.031Z,20
2017-05-05T04:45:10.910Z,20
2017-05-05T04:45:51.786Z,15
2017-05-05T04:46:32.656Z,15
2017-05-05T04:47:13.528Z,15
2017-05-05T04:47:54.409Z,15
2017-05-05T04:48:35.289Z,15
2017-05-05T04:49:16.194Z,15
2017-05-05T04:49:57.089Z,15
2017-05-05T04:50:37.972Z,20
2017-05-05T04:51:18.860Z,20
2017-05-05T04:51:59.746Z,20
2017-05-05T04:52:40.627Z,25
2017-05-05T04:53:21.510Z,25
2017-05-05T04:54:02.395Z,25
2017-05-05T04:54:43.267Z,30
2017-05-05T04:55:24.166Z,35
2017-05-05T04:56:05.044Z,35
2017-05-05T04:56:45.921Z,35
2017-05-05T04:57:26.806Z,35
2017-05-05T04:58:07.687Z,35
2017-05-05T04:58:48.572Z,35
2017-05-05T04:59:29.459Z,35
2017-05-05T05:00:10.335Z,35
2017-05-05T05:00:51.217Z,35
2017-05-05T05:01:32.085Z,35
2017-05-05T05:02:12.950Z,40
2017-05-05T05:02:53.866Z,40
2017-05-05T05:03:34.759Z,40
2017-05-05T05:04:15.631Z,40
2017-05-05T05:04:56.505Z,40
2017-05-05T05:05:37.382Z,40
2017-05-05T05:06:18.270Z,40
2017-05-05T05:06:59.283Z,45
2017-05-05T05:07:40.137Z,40
2017-05-05T05:08:21.018Z,40
2017-05-05T05:09:01.927Z,45
2017-05-05T05:09:42.838Z,45
2017-05-05T05:10:23.723Z,45
2017-05-05T05:11:04.613Z,45
2017-05-05T05:11:45.517Z,45
2017-05-05T05:12:26.404Z,45
2017-05-05T05:13:07.289Z,40
2017-05-05T05:13:48.179Z,40
2017-05-05T05:14:29.067Z,40
2017-05-05T05:15:09.935Z,40
2017-05-05T05:15:50.821Z,40
2017-05-05T05:16:31.686Z,40
2017-05-05T05:17:12.577Z,40
2017-05-05T05:17:53.466Z,35
2017-05-05T05:18:34.360Z,35
2017-05-05T05:19:15.232Z,35
2017-05-05T05:19:56.127Z,35
2017-05-05T05:20:36.972Z,35
2017-05-05T05:21:17.840Z,35
2017-05-05T05:23:37.180Z,35
2017-05-05T05:24:18.057Z,35
2017-05-05T05:24:58.938Z,35
2017-05-05T05:25:39.840Z,35
2017-05-05T05:26:20.728Z,35
2017-05-05T05:27:01.615Z,35
2017-05-05T05:27:42.505Z,35
2017-05-05T05:28:23.381Z,35
2017-05-05T05:29:04.309Z,35
2017-05-05T05:29:45.197Z,35
2017-05-05T05:30:26.080Z,35
2017-05-05T05:31:06.965Z,30
2017-05-05T05:31:47.860Z,30
2017-05-05T05:32:28.745Z,30
2017-05-05T05:33:09.632Z,30
2017-05-05T05:33:50.526Z,30
2017-05-05T05:34:31.421Z,30
2017-05-05T05:35:12.299Z,35
2017-05-05T05:35:55.016Z,35
2017-05-05T05:36:35.912Z,35
2017-05-05T05:37:16.790Z,40
2017-05-05T05:37:57.667Z,40
2017-05-05T05:38:38.555Z,40
2017-05-05T05:39:19.442Z,35
2017-05-05T05:40:00.339Z,35
2017-05-05T05:40:43.869Z,35
2017-05-05T05:41:24.762Z,35
2017-05-05T05:42:05.646Z,35
2017-05-05T05:42:46.541Z,35
2017-05-05T05:43:27.428Z,40
2017-05-05T05:44:08.317Z,45
2017-05-05T05:44:49.199Z,50
2017-05-05T05:45:30.092Z,55
2017-05-05T05:46:10.981Z,55
2017-05-05T05:46:51.867Z,60
2017-05-05T05:47:32.789Z,60
2017-05-05T05:48:13.669Z,65
2017-05-05T05:48:54.557Z,70
2017-05-05T05:49:35.433Z,70
2017-05-05T05:50:16.332Z,75
2017-05-05T05:50:57.230Z,80
2017-05-05T05:51:38.116Z,80
2017-05-05T05:52:18.999Z,85
2017-05-05T05:52:59.888Z,90
2017-05-05T05:53:40.772Z,95
2017-05-05T05:54:21.657Z,95
2017-05-05T05:55:02.545Z,95
2017-05-05T05:55:43.421Z,95
2017-05-05T05:56:24.307Z,100
2017-05-05T05:57:05.228Z,95
2017-05-05T05:57:46.096Z,100
2017-05-05T05:58:26.982Z,105
2017-05-05T05:59:07.869Z,105
2017-05-05T05:59:48.759Z,110
2017-05-05T06:00:29.642Z,110
2017-05-05T06:01:10.515Z,110
2017-05-05T06:01:51.438Z,100
2017-05-05T06:02:32.302Z,100
2017-05-05T06:03:13.170Z,100
2017-05-05T06:03:54.062Z,100
2017-05-05T06:06:09.781Z,90
2017-05-05T06:06:50.665Z,90
2017-05-05T06:13:44.712Z,85
2017-05-05T06:14:25.599Z,90
2017-05-05T06:15:06.491Z,95
2017-05-05T06:15:47.365Z,95
2017-05-05T06:16:28.239Z,90
2017-05-05T06:17:09.129Z,100
2017-05-05T06:17:50.011Z,95
2017-05-05T06:18:30.953Z,95
2017-05-05T06:19:11.786Z,100
2017-05-05T06:19:52.668Z,110
2017-05-05T06:20:33.541Z,115
2017-05-05T06:21:14.433Z,120
2017-05-05T06:21:55.316Z,135
2017-05-05T06:22:36.194Z,135
2017-05-05T06:23:17.073Z,135
2017-05-05T06:23:57.958Z,145
2017-05-05T06:24:38.849Z,145
2017-05-05T06:25:19.707Z,150
2017-05-05T06:26:00.612Z,160
2017-05-05T06:26:41.497Z,160
2017-05-05T06:27:22.382Z,160
2017-05-05T06:28:03.271Z,160
2017-05-05T06:28:44.157Z,155
2017-05-05T06:29:25.059Z,150
2017-05-05T06:30:05.950Z,145
2017-05-05T06:30:46.832Z,145
2017-05-05T06:31:27.711Z,140
2017-05-05T06:32:08.594Z,135
2017-05-05T06:32:49.478Z,135
2017-05-05T06:33:30.364Z,130
2017-05-05T06:34:11.248Z,130
2017-05-05T06:34:52.145Z,125
2017-05-05T06:35:33.029Z,125
2017-05-05T06:36:13.916Z,120
2017-05-05T06:38:28.144Z,95
2017-05-05T06:39:09.036Z,95
2017-05-05T06:39:49.896Z,95
2017-05-05T06:40:30.764Z,95
2017-05-05T06:41:11.639Z,95
2017-05-05T06:41:52.520Z,95
2017-05-05T06:42:33.394Z,95
2017-05-05T06:43:14.271Z,95
2017-05-05T06:43:55.139Z,95
2017-05-05T06:44:36.018Z,100
2017-05-05T06:45:16.901Z,100
2017-05-05T06:45:57.777Z,105
2017-05-05T06:46:38.648Z,110
2017-05-05T06:47:19.539Z,105
2017-05-05T06:48:00.386Z,100
2017-05-05T06:48:41.262Z,100
2017-05-05T06:49:22.145Z,95
2017-05-05T06:50:03.034Z,95
2017-05-05T06:50:43.918Z,95
2017-05-05T06:51:24.795Z,95
2017-05-05T06:52:05.677Z,100
2017-05-05T06:52:46.565Z,100
2017-05-05T06:53:27.445Z,100
2017-05-05T06:54:08.334Z,100
2017-05-05T06:54:49.229Z,100
2017-05-05T06:55:30.097Z,100
2017-05-05T06:56:10.982Z,100
2017-05-05T06:56:51.868Z,100
2017-05-05T06:57:32.750Z,100
2017-05-05T06:58:13.660Z,100
2017-05-05T06:58:54.532Z,105
2017-05-05T06:59:35.396Z,105
2017-05-05T07:00:16.280Z,105
2017-05-05T07:00:57.167Z,110
2017-05-05T07:01:38.050Z,110
2017-05-05T07:02:18.929Z,115
2017-05-05T07:02:59.802Z,115
2017-05-05T07:03:40.664Z,120
2017-05-05T07:04:21.540Z,120
2017-05-05T07:05:02.490Z,120
2017-05-05T07:05:43.307Z,120
2017-05-05T07:06:24.195Z,120
2017-05-05T07:07:05.077Z,120
2017-05-05T07:07:45.965Z,120
2017-05-05T07:08:26.856Z,115
2017-05-05T07:09:07.781Z,115
2017-05-05T07:09:48.656Z,110
2017-05-05T07:10:29.549Z,105
2017-05-05T07:11:10.428Z,105
2017-05-05T07:11:51.310Z,105
2017-05-05T07:12:32.195Z,110
2017-05-05T07:13:13.081Z,110
2017-05-05T07:13:53.959Z,115
2017-05-05T07:14:34.896Z,120
2017-05-05T07:15:15.782Z,120
2017-05-05T07:15:56.674Z,125
2017-05-05T07:16:37.561Z,135
2017-05-05T07:17:18.454Z,140
2017-05-05T07:17:59.341Z,145
2017-05-05T07:18:40.230Z,150
2017-05-05T07:19:21.112Z,150
2017-05-05T07:20:02.014Z,145
2017-05-05T07:20:42.887Z,140
2017-05-05T07:21:23.782Z,135
2017-05-05T07:22:04.668Z,125
2017-05-05T07:22:45.572Z,120
2017-05-05T07:23:26.461Z,120
2017-05-05T07:24:07.347Z,115
2017-05-05T07:24:48.239Z,115
2017-05-05T07:25:29.116Z,110
2017-05-05T07:26:10.000Z,105
2017-05-05T07:26:50.899Z,105
2017-05-05T07:27:31.779Z,105
2017-05-05T07:28:12.668Z,105
2017-05-05T07:28:53.555Z,105
2017-05-05T07:29:34.438Z,110
2017-05-05T07:30:15.328Z,115
2017-05-05T07:30:56.218Z,120
2017-05-05T07:31:37.096Z,120
2017-05-05T07:32:17.988Z,125
2017-05-05T07:32:58.884Z,125
2017-05-05T07:33:39.761Z,125
2017-05-05T07:34:20.647Z,125
2017-05-05T07:35:01.536Z,120
2017-05-05T07:35:42.428Z,120
2017-05-05T07:36:23.315Z,115
2017-05-05T07:37:04.206Z,115
2017-05-05T07:37:45.095Z,115
2017-05-05T07:38:25.982Z,115
2017-05-05T07:39:06.874Z,115
2017-05-05T07:39:47.758Z,110
2017-05-05T07:40:28.641Z,105
2017-05-05T07:41:09.527Z,100
2017-05-05T07:41:50.414Z,100
2017-05-05T07:42:31.454Z,100
2017-05-05T07:44:25.092Z,100
2017-05-05T07:45:05.979Z,100
2017-05-05T07:45:46.865Z,105
2017-05-05T07:46:27.734Z,105
2017-05-05T07:47:08.623Z,105
2017-05-05T07:47:49.509Z,100
2017-05-05T07:48:30.392Z,100
2017-05-05T07:49:11.272Z,100
2017-05-05T07:49:52.158Z,100
2017-05-05T07:50:33.045Z,100
2017-05-05T07:51:13.930Z,100
2017-05-05T07:51:54.814Z,100
2017-05-05T07:52:35.697Z,100
2017-05-05T07:53:16.603Z,100
2017-05-05T07:53:57.482Z,100
2017-05-05T07:54:38.372Z,95
2017-05-05T07:55:19.251Z,95
2017-05-05T07:56:00.136Z,95
2017-05-05T07:56:41.023Z,100
2017-05-05T07:57:21.907Z,100
2017-05-05T07:58:02.887Z,105
2017-05-05T07:58:43.760Z,105
2017-05-05T07:59:24.693Z,110
2017-05-05T08:00:05.575Z,115
2017-05-05T08:00:46.475Z,115
2017-05-05T08:01:27.448Z,115
2017-05-05T08:02:08.356Z,115
2017-05-05T08:02:49.249Z,115
2017-05-05T08:03:30.133Z,110
2017-05-05T08:05:24.735Z,100
2017-05-05T08:06:05.631Z,95
2017-05-05T08:06:47.426Z,90
2017-05-05T08:07:28.310Z,90
2017-05-05T08:08:09.192Z,85
2017-05-05T08:08:50.111Z,85
2017-05-05T08:09:30.992Z,85
2017-05-05T08:10:11.889Z,85
2017-05-05T08:10:52.791Z,85
2017-05-05T08:11:33.672Z,85
2017-05-05T08:12:14.557Z,85
2017-05-05T08:12:55.453Z,90
2017-05-05T08:13:36.333Z,90
2017-05-05T08:14:17.213Z,95
2017-05-05T08:14:58.109Z,100
2017-05-05T08:15:39.000Z,100
2017-05-05T08:16:19.882Z,100
2017-05-05T08:17:00.766Z,100
2017-05-05T08:17:41.649Z,105
2017-05-05T08:18:22.545Z,110
2017-05-05T08:19:03.480Z,115
2017-05-05T08:19:44.321Z,125
2017-05-05T08:20:25.214Z,130
2017-05-05T08:21:06.093Z,140
2017-05-05T08:21:46.978Z,150
2017-05-05T08:22:27.858Z,160
2017-05-05T08:23:08.751Z,165
2017-05-05T08:23:49.642Z,170
2017-05-05T08:24:30.535Z,175
2017-05-05T08:25:11.432Z,175
2017-05-05T08:25:52.326Z,180
2017-05-05T08:26:33.243Z,175
2017-05-05T08:27:14.108Z,175
2017-05-05T08:27:54.994Z,170
2017-05-05T08:28:35.882Z,170
2017-05-05T08:29:16.773Z,160
2017-05-05T08:29:57.649Z,155
2017-05-05T08:30:38.537Z,150
2017-05-05T08:31:19.431Z,145
2017-05-05T08:32:00.325Z,140
2017-05-05T08:32:41.216Z,140
2017-05-05T08:33:22.107Z,145
2017-05-05T08:34:02.996Z,145
2017-05-05T08:34:43.888Z,150
2017-05-05T08:35:24.775Z,150
2017-05-05T08:36:07.455Z,155
2017-05-05T08:36:48.342Z,155
2017-05-05T08:37:29.226Z,160
2017-05-05T08:38:10.088Z,160
2017-05-05T08:38:50.967Z,160
2017-05-05T08:39:31.848Z,160
2017-05-05T08:40:12.747Z,160
2017-05-05T08:40:53.626Z,160
2017-05-05T08:41:34.500Z,160
2017-05-05T08:42:15.389Z,165
2017-05-05T08:42:56.289Z,170
2017-05-05T08:43:37.229Z,175
2017-05-05T08:44:18.147Z,185
2017-05-05T08:44:59.042Z,190
2017-05-05T08:45:39.931Z,200
2017-05-05T08:46:20.803Z,210
2017-05-05T08:47:01.688Z,225
2017-05-05T08:47:42.583Z,235
2017-05-05T08:48:23.482Z,245
2017-05-05T08:49:04.378Z,250
2017-05-05T08:49:45.276Z,255
2017-05-05T08:50:26.152Z,255
2017-05-05T08:51:07.055Z,250
2017-05-05T08:51:47.951Z,250
2017-05-05T08:52:28.836Z,250
2017-05-05T08:53:09.725Z,250
2017-05-05T08:53:50.611Z,245
2017-05-05T08:54:31.543Z,240
2017-05-05T08:55:12.438Z,240
2017-05-05T08:55:53.315Z,230
2017-05-05T08:56:34.191Z,225
2017-05-05T08:57:15.085Z,220
2017-05-05T08:57:55.980Z,215
2017-05-05T08:58:36.860Z,210
2017-05-05T08:59:17.753Z,210
2017-05-05T08:59:58.627Z,205
2017-05-05T09:00:39.518Z,200
2017-05-05T09:01:20.397Z,195
2017-05-05T09:02:01.958Z,195
2017-05-05T09:02:42.841Z,195
2017-05-05T09:03:23.748Z,200
2017-05-05T09:04:04.622Z,205
2017-05-05T09:04:45.520Z,210
2017-05-05T09:05:26.390Z,220
2017-05-05T09:06:07.299Z,230
2017-05-05T09:06:48.190Z,240
2017-05-05T09:07:29.092Z,255
2017-05-05T09:08:10.748Z,255
2017-05-05T09:08:51.634Z,255
2017-05-05T09:09:32.516Z,255
2017-05-05T09:10:13.403Z,255
2017-05-05T09:10:54.304Z,255
2017-05-05T09:11:35.181Z,255
2017-05-05T09:12:16.071Z,255
2017-05-05T09:12:56.960Z,250
2017-05-05T09:13:37.852Z,250
2017-05-05T09:14:18.732Z,250
2017-05-05T09:14:59.623Z,250
2017-05-05T09:15:40.516Z,250
2017-05-05T09:16:21.400Z,250
2017-05-05T09:17:02.307Z,250
2017-05-05T09:17:43.208Z,255
2017-05-05T09:18:24.093Z,255
2017-05-05T09:19:04.984Z,260
2017-05-05T09:19:45.872Z,270
2017-05-05T09:20:26.756Z,275
2017-05-05T09:21:07.644Z,280
2017-05-05T09:21:48.539Z,280
2017-05-05T09:22:29.422Z,275
2017-05-05T09:23:10.301Z,260
2017-05-05T09:23:51.210Z,245
2017-05-05T09:24:32.101Z,235
2017-05-05T09:25:12.992Z,240
2017-05-05T09:25:53.885Z,235
2017-05-05T09:26:34.771Z,235
2017-05-05T09:27:15.654Z,240
2017-05-05T09:27:56.538Z,250
2017-05-05T09:28:37.431Z,265
2017-05-05T09:29:18.324Z,270
2017-05-05T09:29:59.217Z,285
2017-05-05T09:30:40.120Z,290
2017-05-05T09:31:21.006Z,290
2017-05-05T09:32:01.900Z,290
2017-05-05T09:32:42.776Z,295
2017-05-05T09:33:23.662Z,295
2017-05-05T09:34:04.586Z,290
2017-05-05T09:34:45.482Z,295
2017-05-05T09:35:26.360Z,295
2017-05-05T09:36:07.298Z,300
2017-05-05T09:36:48.179Z,300
2017-05-05T09:37:29.070Z,300
2017-05-05T09:38:09.957Z,305
2017-05-05T09:38:50.853Z,300
2017-05-05T09:39:31.738Z,300
2017-05-05T09:40:12.673Z,305
2017-05-05T09:40:53.607Z,305
2017-05-05T09:41:34.503Z,305
2017-05-05T09:42:15.393Z,305
2017-05-05T09:42:56.281Z,305
2017-05-05T09:43:37.168Z,305
2017-05-05T09:44:18.079Z,300
2017-05-05T09:44:58.959Z,290
2017-05-05T09:45:39.858Z,275
2017-05-05T09:46:20.751Z,265
2017-05-05T09:47:01.645Z,250
2017-05-05T09:47:42.524Z,240
2017-05-05T09:48:23.426Z,230
2017-05-05T09:49:04.310Z,225
2017-05-05T09:49:45.245Z,210
2017-05-05T09:50:26.133Z,200
2017-05-05T09:51:07.024Z,190
2017-05-05T09:51:47.920Z,190
2017-05-05T09:52:28.806Z,180
2017-05-05T09:53:09.686Z,175
2017-05-05T09:53:50.579Z,170
2017-05-05T09:54:31.458Z,165
2017-05-05T09:55:12.345Z,160
2017-05-05T09:55:53.236Z,160
2017-05-05T09:56:34.130Z,150
2017-05-05T09:57:15.032Z,150
2017-05-05T09:57:55.940Z,140
2017-05-05T09:58:36.829Z,140
2017-05-05T09:59:17.711Z,140
2017-05-05T09:59:58.601Z,135
2017-05-05T10:00:39.498Z,130
2017-05-05T10:01:20.394Z,130
2017-05-05T10:02:01.275Z,125
2017-05-05T10:02:42.170Z,120